sensor_id;sensor_type;location;lat;lon;timestamp;temperature;humidity
13091;DHT22;6611;52.604;13.438;2023-07-20T00:01:40;16.83;84.17
13091;DHT22;6611;52.604;13.438;2023-07-20T00:06:46;16.74;84.37
13091;DHT22;6611;52.604;13.438;2023-07-20T00:11:49;16.74;84.20
13091;DHT22;6611;52.604;13.438;2023-07-20T00:16:51;16.71;84.44
13091;DHT22;6611;52.604;13.438;2023-07-20T00:21:58;16.66;84.44
13091;DHT22;6611;52.604;13.438;2023-07-20T00:26:59;16.60;84.55
13091;DHT22;6611;52.604;13.438;2023-07-20T00:32:03;16.59;84.43
13091;DHT22;6611;52.604;13.438;2023-07-20T00:37:07;16.55;84.14
13091;DHT22;6611;52.604;13.438;2023-07-20T00:42:09;16.49;84.00
13091;DHT22;6611;52.604;13.438;2023-07-20T00:47:11;16.34;84.52
13091;DHT22;6611;52.604;13.438;2023-07-20T00:52:14;16.28;84.67
13091;DHT22;6611;52.604;13.438;2023-07-20T00:57:17;16.26;84.74
13091;DHT22;6611;52.604;13.438;2023-07-20T01:02:19;16.19;84.84
13091;DHT22;6611;52.604;13.438;2023-07-20T01:07:25;16.16;84.78
13091;DHT22;6611;52.604;13.438;2023-07-20T01:12:35;16.19;84.75
13091;DHT22;6611;52.604;13.438;2023-07-20T01:17:37;16.25;85.11
13091;DHT22;6611;52.604;13.438;2023-07-20T01:22:57;16.26;85.18
13091;DHT22;6611;52.604;13.438;2023-07-20T01:28:27;16.29;85.37
13091;DHT22;6611;52.604;13.438;2023-07-20T01:33:36;16.34;85.10
13091;DHT22;6611;52.604;13.438;2023-07-20T01:38:38;16.39;85.19
13091;DHT22;6611;52.604;13.438;2023-07-20T01:43:39;16.34;85.36
13091;DHT22;6611;52.604;13.438;2023-07-20T01:48:42;16.39;85.08
13091;DHT22;6611;52.604;13.438;2023-07-20T01:53:44;16.36;85.49
13091;DHT22;6611;52.604;13.438;2023-07-20T01:58:45;16.40;85.40
13091;DHT22;6611;52.604;13.438;2023-07-20T02:03:48;16.45;85.29
13091;DHT22;6611;52.604;13.438;2023-07-20T02:08:50;16.50;85.21
13091;DHT22;6611;52.604;13.438;2023-07-20T02:13:52;16.45;85.38
13091;DHT22;6611;52.604;13.438;2023-07-20T02:18:55;16.38;85.53
13091;DHT22;6611;52.604;13.438;2023-07-20T02:23:57;16.38;85.46
13091;DHT22;6611;52.604;13.438;2023-07-20T02:28:58;16.38;85.58
13091;DHT22;6611;52.604;13.438;2023-07-20T02:34:01;16.32;85.30
13091;DHT22;6611;52.604;13.438;2023-07-20T02:39:03;16.28;85.73
13091;DHT22;6611;52.604;13.438;2023-07-20T02:44:05;16.29;85.60
13091;DHT22;6611;52.604;13.438;2023-07-20T02:49:08;16.34;85.98
13091;DHT22;6611;52.604;13.438;2023-07-20T02:54:09;16.38;85.51
13091;DHT22;6611;52.604;13.438;2023-07-20T02:59:11;16.34;85.76
13091;DHT22;6611;52.604;13.438;2023-07-20T03:04:14;16.26;85.41
13091;DHT22;6611;52.604;13.438;2023-07-20T03:09:16;16.26;85.33
13091;DHT22;6611;52.604;13.438;2023-07-20T03:14:18;16.22;85.82
13091;DHT22;6611;52.604;13.438;2023-07-20T03:19:21;16.33;85.53
13091;DHT22;6611;52.604;13.438;2023-07-20T03:24:23;16.30;85.64
13091;DHT22;6611;52.604;13.438;2023-07-20T03:29:24;16.33;85.42
13091;DHT22;6611;52.604;13.438;2023-07-20T03:34:27;16.30;85.55
13091;DHT22;6611;52.604;13.438;2023-07-20T03:39:29;16.25;85.87
13091;DHT22;6611;52.604;13.438;2023-07-20T03:44:31;16.25;85.75
13091;DHT22;6611;52.604;13.438;2023-07-20T03:49:34;16.38;85.58
13091;DHT22;6611;52.604;13.438;2023-07-20T03:54:36;16.39;85.40
13091;DHT22;6611;52.604;13.438;2023-07-20T03:59:38;16.36;85.47
13091;DHT22;6611;52.604;13.438;2023-07-20T04:04:41;16.42;85.55
13091;DHT22;6611;52.604;13.438;2023-07-20T04:09:43;16.38;85.19
13091;DHT22;6611;52.604;13.438;2023-07-20T04:14:45;16.43;85.23
13091;DHT22;6611;52.604;13.438;2023-07-20T04:19:48;16.46;85.05
13091;DHT22;6611;52.604;13.438;2023-07-20T04:24:50;16.56;84.77
13091;DHT22;6611;52.604;13.438;2023-07-20T04:29:52;16.53;84.83
13091;DHT22;6611;52.604;13.438;2023-07-20T04:34:55;16.55;84.41
13091;DHT22;6611;52.604;13.438;2023-07-20T04:39:56;16.63;84.36
13091;DHT22;6611;52.604;13.438;2023-07-20T04:44:58;16.56;84.62
13091;DHT22;6611;52.604;13.438;2023-07-20T04:50:01;16.70;84.42
13091;DHT22;6611;52.604;13.438;2023-07-20T04:55:03;16.84;84.17
13091;DHT22;6611;52.604;13.438;2023-07-20T05:00:06;16.94;83.43
13091;DHT22;6611;52.604;13.438;2023-07-20T05:05:11;16.91;82.19
13091;DHT22;6611;52.604;13.438;2023-07-20T05:10:13;16.85;82.73
13091;DHT22;6611;52.604;13.438;2023-07-20T05:15:15;16.95;82.86
13091;DHT22;6611;52.604;13.438;2023-07-20T05:20:19;17.02;82.19
13091;DHT22;6611;52.604;13.438;2023-07-20T05:25:20;17.02;82.08
13091;DHT22;6611;52.604;13.438;2023-07-20T05:30:23;17.07;81.98
13091;DHT22;6611;52.604;13.438;2023-07-20T05:35:26;17.12;81.50
13091;DHT22;6611;52.604;13.438;2023-07-20T05:40:28;17.18;81.32
13091;DHT22;6611;52.604;13.438;2023-07-20T05:45:30;17.30;81.13
13091;DHT22;6611;52.604;13.438;2023-07-20T05:50:33;17.49;80.02
13091;DHT22;6611;52.604;13.438;2023-07-20T05:55:34;17.42;79.23
13091;DHT22;6611;52.604;13.438;2023-07-20T06:00:36;17.59;79.05
13091;DHT22;6611;52.604;13.438;2023-07-20T06:05:39;17.60;79.63
13091;DHT22;6611;52.604;13.438;2023-07-20T06:10:41;17.82;77.98
13091;DHT22;6611;52.604;13.438;2023-07-20T06:15:42;18.13;77.31
13091;DHT22;6611;52.604;13.438;2023-07-20T06:20:49;18.33;75.83
13091;DHT22;6611;52.604;13.438;2023-07-20T06:25:51;18.39;75.09
13091;DHT22;6611;52.604;13.438;2023-07-20T06:30:59;18.42;74.96
13091;DHT22;6611;52.604;13.438;2023-07-20T06:36:02;18.23;74.42
13091;DHT22;6611;52.604;13.438;2023-07-20T06:41:04;18.06;74.90
13091;DHT22;6611;52.604;13.438;2023-07-20T06:46:06;17.91;74.98
13091;DHT22;6611;52.604;13.438;2023-07-20T06:51:09;17.97;74.00
13091;DHT22;6611;52.604;13.438;2023-07-20T06:56:10;18.21;73.53
13091;DHT22;6611;52.604;13.438;2023-07-20T07:01:13;19.03;70.56
13091;DHT22;6611;52.604;13.438;2023-07-20T07:06:16;19.22;68.50
13091;DHT22;6611;52.604;13.438;2023-07-20T07:11:18;19.54;67.16
13091;DHT22;6611;52.604;13.438;2023-07-20T07:16:19;19.82;66.55
13091;DHT22;6611;52.604;13.438;2023-07-20T07:21:22;20.39;64.37
13091;DHT22;6611;52.604;13.438;2023-07-20T07:26:26;20.81;61.20
13091;DHT22;6611;52.604;13.438;2023-07-20T07:31:28;21.10;62.53
13091;DHT22;6611;52.604;13.438;2023-07-20T07:36:33;21.59;61.62
13091;DHT22;6611;52.604;13.438;2023-07-20T07:41:34;21.34;60.28
13091;DHT22;6611;52.604;13.438;2023-07-20T07:46:36;21.16;61.53
13091;DHT22;6611;52.604;13.438;2023-07-20T07:51:39;21.05;61.19
13091;DHT22;6611;52.604;13.438;2023-07-20T07:56:41;20.79;62.00
13091;DHT22;6611;52.604;13.438;2023-07-20T08:01:44;20.72;61.21
13091;DHT22;6611;52.604;13.438;2023-07-20T08:06:47;21.13;61.60
13091;DHT22;6611;52.604;13.438;2023-07-20T08:11:49;21.05;61.79
13091;DHT22;6611;52.604;13.438;2023-07-20T08:16:50;20.55;61.17
13091;DHT22;6611;52.604;13.438;2023-07-20T08:21:54;20.57;61.96
13091;DHT22;6611;52.604;13.438;2023-07-20T08:26:56;20.89;61.07
13091;DHT22;6611;52.604;13.438;2023-07-20T08:31:58;21.23;60.34
13091;DHT22;6611;52.604;13.438;2023-07-20T08:37:01;21.22;58.74
13091;DHT22;6611;52.604;13.438;2023-07-20T08:42:04;20.98;59.16
13091;DHT22;6611;52.604;13.438;2023-07-20T08:47:07;20.87;58.88
13091;DHT22;6611;52.604;13.438;2023-07-20T08:52:11;21.43;58.07
13091;DHT22;6611;52.604;13.438;2023-07-20T08:57:13;22.12;57.19
13091;DHT22;6611;52.604;13.438;2023-07-20T09:02:16;22.05;56.44
13091;DHT22;6611;52.604;13.438;2023-07-20T09:07:20;21.89;57.83
13091;DHT22;6611;52.604;13.438;2023-07-20T09:12:23;22.55;56.03
13091;DHT22;6611;52.604;13.438;2023-07-20T09:17:26;22.53;53.72
13091;DHT22;6611;52.604;13.438;2023-07-20T09:22:31;22.12;55.68
13091;DHT22;6611;52.604;13.438;2023-07-20T09:27:35;21.81;57.13
13091;DHT22;6611;52.604;13.438;2023-07-20T09:32:39;21.53;57.33
13091;DHT22;6611;52.604;13.438;2023-07-20T09:37:46;20.85;59.05
13091;DHT22;6611;52.604;13.438;2023-07-20T09:42:52;20.39;60.78
13091;DHT22;6611;52.604;13.438;2023-07-20T09:48:03;19.85;63.36
13091;DHT22;6611;52.604;13.438;2023-07-20T09:53:07;19.74;63.71
13091;DHT22;6611;52.604;13.438;2023-07-20T09:58:09;19.88;63.14
13091;DHT22;6611;52.604;13.438;2023-07-20T10:03:14;20.16;62.62
13091;DHT22;6611;52.604;13.438;2023-07-20T10:08:20;20.23;61.70
13091;DHT22;6611;52.604;13.438;2023-07-20T10:13:26;20.48;61.28
13091;DHT22;6611;52.604;13.438;2023-07-20T10:18:30;20.61;59.93
13091;DHT22;6611;52.604;13.438;2023-07-20T10:23:34;20.43;59.96
13091;DHT22;6611;52.604;13.438;2023-07-20T10:28:36;20.79;60.27
13091;DHT22;6611;52.604;13.438;2023-07-20T10:33:38;21.15;59.33
13091;DHT22;6611;52.604;13.438;2023-07-20T10:38:42;21.26;59.46
13091;DHT22;6611;52.604;13.438;2023-07-20T10:43:45;21.48;58.54
13091;DHT22;6611;52.604;13.438;2023-07-20T10:49:00;21.77;58.60
13091;DHT22;6611;52.604;13.438;2023-07-20T10:54:03;21.86;57.72
13091;DHT22;6611;52.604;13.438;2023-07-20T10:59:18;21.61;55.78
13091;DHT22;6611;52.604;13.438;2023-07-20T11:04:37;21.89;56.35
13091;DHT22;6611;52.604;13.438;2023-07-20T11:09:40;22.19;55.87
13091;DHT22;6611;52.604;13.438;2023-07-20T11:14:44;22.65;55.05
13091;DHT22;6611;52.604;13.438;2023-07-20T11:19:55;23.17;53.89
13091;DHT22;6611;52.604;13.438;2023-07-20T11:24:59;23.07;53.96
13091;DHT22;6611;52.604;13.438;2023-07-20T11:30:00;22.61;53.98
13091;DHT22;6611;52.604;13.438;2023-07-20T11:35:02;22.72;55.04
13091;DHT22;6611;52.604;13.438;2023-07-20T11:40:07;22.81;55.15
13091;DHT22;6611;52.604;13.438;2023-07-20T11:45:11;22.32;55.08
13091;DHT22;6611;52.604;13.438;2023-07-20T11:50:13;21.84;56.15
13091;DHT22;6611;52.604;13.438;2023-07-20T11:55:17;21.30;61.33
13091;DHT22;6611;52.604;13.438;2023-07-20T12:00:19;20.65;67.03
13091;DHT22;6611;52.604;13.438;2023-07-20T12:05:22;20.60;69.21
13091;DHT22;6611;52.604;13.438;2023-07-20T12:10:26;20.81;69.61
13091;DHT22;6611;52.604;13.438;2023-07-20T12:15:28;20.88;66.02
13091;DHT22;6611;52.604;13.438;2023-07-20T12:20:33;20.71;66.69
13091;DHT22;6611;52.604;13.438;2023-07-20T12:25:41;20.47;65.72
13091;DHT22;6611;52.604;13.438;2023-07-20T12:30:44;20.58;65.02
13091;DHT22;6611;52.604;13.438;2023-07-20T12:35:46;20.95;64.08
13091;DHT22;6611;52.604;13.438;2023-07-20T12:40:49;21.43;61.94
13091;DHT22;6611;52.604;13.438;2023-07-20T12:45:51;21.93;59.16
13091;DHT22;6611;52.604;13.438;2023-07-20T12:50:53;22.26;56.50
13091;DHT22;6611;52.604;13.438;2023-07-20T12:55:56;22.36;56.24
13091;DHT22;6611;52.604;13.438;2023-07-20T13:00:58;22.54;53.81
13091;DHT22;6611;52.604;13.438;2023-07-20T13:06:00;22.60;51.33
13091;DHT22;6611;52.604;13.438;2023-07-20T13:11:03;22.76;50.85
13091;DHT22;6611;52.604;13.438;2023-07-20T13:16:05;22.87;50.64
13091;DHT22;6611;52.604;13.438;2023-07-20T13:21:06;22.82;48.75
13091;DHT22;6611;52.604;13.438;2023-07-20T13:26:12;22.99;48.54
13091;DHT22;6611;52.604;13.438;2023-07-20T13:31:14;23.15;46.43
13091;DHT22;6611;52.604;13.438;2023-07-20T13:36:17;23.34;47.32
13091;DHT22;6611;52.604;13.438;2023-07-20T13:41:20;23.47;45.74
13091;DHT22;6611;52.604;13.438;2023-07-20T13:46:23;23.39;45.90
13091;DHT22;6611;52.604;13.438;2023-07-20T13:51:24;23.10;46.20
13091;DHT22;6611;52.604;13.438;2023-07-20T13:56:28;22.61;46.06
13091;DHT22;6611;52.604;13.438;2023-07-20T14:01:29;22.69;45.87
13091;DHT22;6611;52.604;13.438;2023-07-20T14:06:33;22.75;46.31
13091;DHT22;6611;52.604;13.438;2023-07-20T14:11:36;22.47;48.37
13091;DHT22;6611;52.604;13.438;2023-07-20T14:16:38;22.46;49.42
13091;DHT22;6611;52.604;13.438;2023-07-20T14:21:39;22.39;48.15
13091;DHT22;6611;52.604;13.438;2023-07-20T14:26:42;22.33;47.29
13091;DHT22;6611;52.604;13.438;2023-07-20T14:31:44;22.47;46.63
13091;DHT22;6611;52.604;13.438;2023-07-20T14:36:49;22.53;44.12
13091;DHT22;6611;52.604;13.438;2023-07-20T14:41:53;22.65;46.03
13091;DHT22;6611;52.604;13.438;2023-07-20T14:46:54;22.75;46.21
13091;DHT22;6611;52.604;13.438;2023-07-20T14:51:56;22.87;44.50
13091;DHT22;6611;52.604;13.438;2023-07-20T14:56:59;22.99;45.12
13091;DHT22;6611;52.604;13.438;2023-07-20T15:02:01;22.92;44.88
13091;DHT22;6611;52.604;13.438;2023-07-20T15:07:03;22.96;45.71
13091;DHT22;6611;52.604;13.438;2023-07-20T15:12:08;23.31;45.46
13091;DHT22;6611;52.604;13.438;2023-07-20T15:17:10;23.47;43.33
13091;DHT22;6611;52.604;13.438;2023-07-20T15:22:12;23.34;43.06
13091;DHT22;6611;52.604;13.438;2023-07-20T15:27:15;23.12;42.74
13091;DHT22;6611;52.604;13.438;2023-07-20T15:32:17;23.28;42.91
13091;DHT22;6611;52.604;13.438;2023-07-20T15:37:19;23.19;43.26
13091;DHT22;6611;52.604;13.438;2023-07-20T15:42:22;23.24;43.37
13091;DHT22;6611;52.604;13.438;2023-07-20T15:47:24;23.03;42.02
13091;DHT22;6611;52.604;13.438;2023-07-20T15:52:27;22.85;45.37
13091;DHT22;6611;52.604;13.438;2023-07-20T15:57:30;22.48;45.46
13091;DHT22;6611;52.604;13.438;2023-07-20T16:02:31;22.26;45.84
13091;DHT22;6611;52.604;13.438;2023-07-20T16:07:33;22.32;46.51
13091;DHT22;6611;52.604;13.438;2023-07-20T16:12:36;22.39;46.47
13091;DHT22;6611;52.604;13.438;2023-07-20T16:17:38;22.32;46.14
13091;DHT22;6611;52.604;13.438;2023-07-20T16:22:40;21.95;45.00
13091;DHT22;6611;52.604;13.438;2023-07-20T16:27:43;21.95;45.91
13091;DHT22;6611;52.604;13.438;2023-07-20T16:32:45;21.73;45.86
13091;DHT22;6611;52.604;13.438;2023-07-20T16:37:47;21.58;48.26
13091;DHT22;6611;52.604;13.438;2023-07-20T16:42:49;21.53;48.22
13091;DHT22;6611;52.604;13.438;2023-07-20T16:47:51;21.73;49.78
13091;DHT22;6611;52.604;13.438;2023-07-20T16:52:54;21.91;49.33
13091;DHT22;6611;52.604;13.438;2023-07-20T16:57:57;21.96;49.31
13091;DHT22;6611;52.604;13.438;2023-07-20T17:02:58;21.86;49.73
13091;DHT22;6611;52.604;13.438;2023-07-20T17:08:03;21.68;49.09
13091;DHT22;6611;52.604;13.438;2023-07-20T17:13:06;21.57;48.28
13091;DHT22;6611;52.604;13.438;2023-07-20T17:18:10;21.48;49.68
13091;DHT22;6611;52.604;13.438;2023-07-20T17:23:13;21.39;48.66
13091;DHT22;6611;52.604;13.438;2023-07-20T17:28:16;21.02;49.47
13091;DHT22;6611;52.604;13.438;2023-07-20T17:33:17;20.99;49.63
13091;DHT22;6611;52.604;13.438;2023-07-20T17:38:20;20.72;49.33
13091;DHT22;6611;52.604;13.438;2023-07-20T17:43:23;20.72;49.96
13091;DHT22;6611;52.604;13.438;2023-07-20T17:48:25;20.47;49.39
13091;DHT22;6611;52.604;13.438;2023-07-20T17:53:26;20.41;50.67
13091;DHT22;6611;52.604;13.438;2023-07-20T17:58:30;20.37;51.08
13091;DHT22;6611;52.604;13.438;2023-07-20T18:03:33;20.22;51.03
13091;DHT22;6611;52.604;13.438;2023-07-20T18:08:35;20.16;51.45
13091;DHT22;6611;52.604;13.438;2023-07-20T18:13:37;20.04;51.59
13091;DHT22;6611;52.604;13.438;2023-07-20T18:18:39;19.88;51.05
13091;DHT22;6611;52.604;13.438;2023-07-20T18:23:41;19.71;51.71
13091;DHT22;6611;52.604;13.438;2023-07-20T18:28:44;19.63;51.98
13091;DHT22;6611;52.604;13.438;2023-07-20T18:33:45;19.53;52.47
13091;DHT22;6611;52.604;13.438;2023-07-20T18:38:47;19.43;52.84
13091;DHT22;6611;52.604;13.438;2023-07-20T18:43:50;19.27;53.88
13091;DHT22;6611;52.604;13.438;2023-07-20T18:48:52;19.16;54.92
13091;DHT22;6611;52.604;13.438;2023-07-20T18:53:53;19.06;55.26
13091;DHT22;6611;52.604;13.438;2023-07-20T18:58:56;18.88;56.11
13091;DHT22;6611;52.604;13.438;2023-07-20T19:03:58;18.74;57.46
13091;DHT22;6611;52.604;13.438;2023-07-20T19:08:59;18.65;57.89
13091;DHT22;6611;52.604;13.438;2023-07-20T19:14:02;18.47;59.04
13091;DHT22;6611;52.604;13.438;2023-07-20T19:19:04;18.37;58.65
13091;DHT22;6611;52.604;13.438;2023-07-20T19:24:06;18.34;58.74
13091;DHT22;6611;52.604;13.438;2023-07-20T19:29:10;18.21;59.18
13091;DHT22;6611;52.604;13.438;2023-07-20T19:34:12;18.08;59.73
13091;DHT22;6611;52.604;13.438;2023-07-20T19:39:14;17.92;60.82
13091;DHT22;6611;52.604;13.438;2023-07-20T19:44:17;17.87;62.62
13091;DHT22;6611;52.604;13.438;2023-07-20T19:49:19;17.77;63.16
13091;DHT22;6611;52.604;13.438;2023-07-20T19:54:20;17.80;62.40
13091;DHT22;6611;52.604;13.438;2023-07-20T19:59:24;17.60;63.41
13091;DHT22;6611;52.604;13.438;2023-07-20T20:04:26;17.39;63.44
13091;DHT22;6611;52.604;13.438;2023-07-20T20:09:29;17.14;64.99
13091;DHT22;6611;52.604;13.438;2023-07-20T20:14:32;17.00;65.35
13091;DHT22;6611;52.604;13.438;2023-07-20T20:19:33;16.78;66.54
13091;DHT22;6611;52.604;13.438;2023-07-20T20:24:35;16.60;66.34
13091;DHT22;6611;52.604;13.438;2023-07-20T20:29:38;16.46;67.09
13091;DHT22;6611;52.604;13.438;2023-07-20T20:34:40;16.39;67.28
13091;DHT22;6611;52.604;13.438;2023-07-20T20:39:41;16.23;67.32
13091;DHT22;6611;52.604;13.438;2023-07-20T20:44:45;16.05;67.42
13091;DHT22;6611;52.604;13.438;2023-07-20T20:49:46;15.98;67.72
13091;DHT22;6611;52.604;13.438;2023-07-20T20:54:49;15.88;68.61
13091;DHT22;6611;52.604;13.438;2023-07-20T20:59:52;15.74;69.51
13091;DHT22;6611;52.604;13.438;2023-07-20T21:04:54;15.73;69.58
13091;DHT22;6611;52.604;13.438;2023-07-20T21:09:55;15.70;69.87
13091;DHT22;6611;52.604;13.438;2023-07-20T21:14:59;15.57;70.63
13091;DHT22;6611;52.604;13.438;2023-07-20T21:20:01;15.53;70.42
13091;DHT22;6611;52.604;13.438;2023-07-20T21:25:04;15.42;71.04
13091;DHT22;6611;52.604;13.438;2023-07-20T21:30:09;15.26;71.37
13091;DHT22;6611;52.604;13.438;2023-07-20T21:35:11;15.22;71.34
13091;DHT22;6611;52.604;13.438;2023-07-20T21:40:13;15.28;71.51
13091;DHT22;6611;52.604;13.438;2023-07-20T21:45:16;15.25;71.69
13091;DHT22;6611;52.604;13.438;2023-07-20T21:50:18;15.19;71.67
13091;DHT22;6611;52.604;13.438;2023-07-20T21:55:20;15.19;71.76
13091;DHT22;6611;52.604;13.438;2023-07-20T22:00:23;15.21;71.72
13091;DHT22;6611;52.604;13.438;2023-07-20T22:05:25;15.19;72.44
13091;DHT22;6611;52.604;13.438;2023-07-20T22:10:27;15.19;72.78
13091;DHT22;6611;52.604;13.438;2023-07-20T22:15:30;15.15;72.89
13091;DHT22;6611;52.604;13.438;2023-07-20T22:20:33;14.99;72.69
13091;DHT22;6611;52.604;13.438;2023-07-20T22:25:35;15.04;72.26
13091;DHT22;6611;52.604;13.438;2023-07-20T22:30:38;14.95;73.35
13091;DHT22;6611;52.604;13.438;2023-07-20T22:35:40;14.91;73.64
13091;DHT22;6611;52.604;13.438;2023-07-20T22:40:42;14.85;73.78
13091;DHT22;6611;52.604;13.438;2023-07-20T22:45:45;14.69;73.85
13091;DHT22;6611;52.604;13.438;2023-07-20T22:50:46;14.69;73.74
13091;DHT22;6611;52.604;13.438;2023-07-20T22:55:48;14.52;74.47
13091;DHT22;6611;52.604;13.438;2023-07-20T23:00:51;14.47;74.75
13091;DHT22;6611;52.604;13.438;2023-07-20T23:05:53;14.47;74.88
13091;DHT22;6611;52.604;13.438;2023-07-20T23:10:55;14.43;74.71
13091;DHT22;6611;52.604;13.438;2023-07-20T23:15:58;14.26;75.26
13091;DHT22;6611;52.604;13.438;2023-07-20T23:20:59;14.18;75.42
13091;DHT22;6611;52.604;13.438;2023-07-20T23:26:03;14.14;75.83
13091;DHT22;6611;52.604;13.438;2023-07-20T23:31:06;14.08;75.84
13091;DHT22;6611;52.604;13.438;2023-07-20T23:36:08;13.97;76.22
13091;DHT22;6611;52.604;13.438;2023-07-20T23:41:09;13.95;76.44
13091;DHT22;6611;52.604;13.438;2023-07-20T23:46:12;13.83;76.54
13091;DHT22;6611;52.604;13.438;2023-07-20T23:51:15;13.77;76.96
13091;DHT22;6611;52.604;13.438;2023-07-20T23:56:19;13.73;77.16
